Time;durP1;ratioP1;P1;durP2;ratioP2;P2;SDS_P1;SDS_P2;PMS_P1;PMS_P2;Temp;Humidity;BMP_temperature;BMP_pressure;BME280_temperature;BME280_humidity;BME280_pressure;Samples;Min_cycle;Max_cycle;Signal;HPM_P1;HPM_P2
2023/06/25 00:00:54;;;;;;;;;;;19.50;76.50;;;;;;5026484;28;19920;-77
2023/06/25 00:03:20;;;;;;;;;;;19.50;76.90;;;;;;5032488;28;20000;-79
2023/06/25 00:05:45;;;;;;;;;;;19.60;76.70;;;;;;5033968;28;20271;-79
2023/06/25 00:08:11;;;;;;;;;;;19.50;76.70;;;;;;5032625;28;19923;-79
2023/06/25 00:10:37;;;;;;;;;;;19.40;77.20;;;;;;5049078;28;19913;-78
2023/06/25 00:13:02;;;;;;;;;;;19.40;76.90;;;;;;5032760;28;19921;-79
2023/06/25 00:15:28;;;;;;;;;;;19.30;77.20;;;;;;5047315;28;19939;-78
2023/06/25 00:17:54;;;;;;;;;;;19.30;77.50;;;;;;5048429;28;19920;-80
2023/06/25 00:20:19;;;;;;;;;;;19.10;77.40;;;;;;5047921;28;19925;-80
2023/06/25 00:22:45;;;;;;;;;;;19.20;77.50;;;;;;5047460;28;19924;-78
2023/06/25 00:25:14;;;;;;;;;;;19.20;76.60;;;;;;5032924;28;19913;-79
2023/06/25 00:27:40;;;;;;;;;;;19.20;76.70;;;;;;5050996;28;19917;-79
2023/06/25 00:30:07;;;;;;;;;;;19.10;77.60;;;;;;5050536;28;19916;-80
2023/06/25 00:32:33;;;;;;;;;;;19.00;78.00;;;;;;5036442;28;19921;-78
2023/06/25 00:35:00;;;;;;;;;;;19.10;78.10;;;;;;5051254;28;20013;-78
2023/06/25 00:37:26;;;;;;;;;;;19.10;78.20;;;;;;5025032;28;20440;-79
2023/06/25 00:39:51;;;;;;;;;;;19.10;78.10;;;;;;5051997;22;20066;-79
2023/06/25 00:42:17;;;;;;;;;;;19.10;78.00;;;;;;5007371;28;19989;-78
2023/06/25 00:44:43;;;;;;;;;;;19.10;78.30;;;;;;5012121;28;19917;-79
2023/06/25 00:47:12;;;;;;;;;;;19.00;78.50;;;;;;5039339;28;19917;-79
2023/06/25 00:49:38;;;;;;;;;;;19.00;78.60;;;;;;5025773;28;20645;-78
2023/06/25 00:52:08;;;;;;;;;;;19.00;78.70;;;;;;5027480;28;20008;-77
2023/06/25 00:54:45;;;;;;;;;;;18.90;78.50;;;;;;5024015;28;19913;-78
2023/06/25 00:57:10;;;;;;;;;;;19.00;78.20;;;;;;5012498;28;19921;-79
2023/06/25 00:59:40;;;;;;;;;;;19.00;77.80;;;;;;5038873;28;19983;-79
2023/06/25 01:02:11;;;;;;;;;;;19.00;78.50;;;;;;5034106;28;19921;-78
2023/06/25 01:04:40;;;;;;;;;;;18.90;78.30;;;;;;5028040;28;19923;-77
2023/06/25 01:07:10;;;;;;;;;;;19.00;77.50;;;;;;5036921;28;19917;-77
2023/06/25 01:09:37;;;;;;;;;;;18.90;77.70;;;;;;5036224;28;19921;-78
2023/06/25 01:12:03;;;;;;;;;;;18.80;78.50;;;;;;5034455;28;19924;-78
2023/06/25 01:14:28;;;;;;;;;;;18.80;78.70;;;;;;5042507;28;19997;-78
2023/06/25 01:16:55;;;;;;;;;;;18.70;79.20;;;;;;5021831;28;19922;-76
2023/06/25 01:19:25;;;;;;;;;;;18.60;79.20;;;;;;5035153;28;19917;-78
2023/06/25 01:21:51;;;;;;;;;;;18.60;79.70;;;;;;5035036;28;19913;-78
2023/06/25 01:24:17;;;;;;;;;;;18.60;79.60;;;;;;5025864;28;19932;-80
2023/06/25 01:26:44;;;;;;;;;;;18.60;79.40;;;;;;5026544;28;19912;-79
2023/06/25 01:29:09;;;;;;;;;;;18.60;78.90;;;;;;5007198;28;19922;-80
2023/06/25 01:31:35;;;;;;;;;;;18.60;79.50;;;;;;5010154;28;20377;-79
2023/06/25 01:34:00;;;;;;;;;;;18.50;79.30;;;;;;5024261;28;19917;-79
2023/06/25 01:36:26;;;;;;;;;;;18.50;79.40;;;;;;5025187;28;19917;-80
2023/06/25 01:38:52;;;;;;;;;;;18.50;79.70;;;;;;5025329;28;19913;-77
2023/06/25 01:41:17;;;;;;;;;;;18.50;80.20;;;;;;5022603;28;20403;-82
2023/06/25 01:43:43;;;;;;;;;;;18.50;79.60;;;;;;5012521;28;19988;-78
2023/06/25 01:46:08;;;;;;;;;;;18.50;79.70;;;;;;5032895;28;19955;-78
2023/06/25 01:48:35;;;;;;;;;;;18.50;80.00;;;;;;5034746;28;19927;-79
2023/06/25 01:51:00;;;;;;;;;;;18.50;80.10;;;;;;5044034;28;19945;-80
2023/06/25 01:53:26;;;;;;;;;;;18.40;80.00;;;;;;5014533;28;19913;-80
2023/06/25 01:55:52;;;;;;;;;;;18.40;80.00;;;;;;5025711;28;19914;-78
2023/06/25 01:58:17;;;;;;;;;;;18.30;80.30;;;;;;5014970;28;19913;-79
2023/06/25 02:00:43;;;;;;;;;;;18.20;81.10;;;;;;5023929;28;19928;-79
2023/06/25 02:03:08;;;;;;;;;;;18.20;81.00;;;;;;5020609;28;20597;-78
2023/06/25 02:05:34;;;;;;;;;;;18.20;80.40;;;;;;5020888;28;19972;-77
2023/06/25 02:07:59;;;;;;;;;;;18.10;81.00;;;;;;5025814;28;19917;-79
2023/06/25 02:10:26;;;;;;;;;;;18.10;81.10;;;;;;5009971;28;20291;-80
2023/06/25 02:12:52;;;;;;;;;;;18.10;81.00;;;;;;5021724;28;19921;-80
2023/06/25 02:15:17;;;;;;;;;;;18.10;80.80;;;;;;5024016;28;19917;-79
2023/06/25 02:17:43;;;;;;;;;;;18.00;81.40;;;;;;5018524;28;20051;-78
2023/06/25 02:20:08;;;;;;;;;;;18.00;81.60;;;;;;5019568;28;20404;-78
2023/06/25 02:22:34;;;;;;;;;;;18.00;81.40;;;;;;5025607;28;19936;-79
2023/06/25 02:24:59;;;;;;;;;;;18.10;80.80;;;;;;5011070;28;19917;-78
2023/06/25 02:27:24;;;;;;;;;;;18.10;80.90;;;;;;5021855;28;20403;-79
2023/06/25 02:29:50;;;;;;;;;;;18.00;81.70;;;;;;5006973;28;20281;-79
2023/06/25 02:32:15;;;;;;;;;;;18.00;82.00;;;;;;5020614;28;19916;-79
2023/06/25 02:34:41;;;;;;;;;;;18.00;81.90;;;;;;5033774;28;19913;-78
2023/06/25 02:37:16;;;;;;;;;;;18.00;82.00;;;;;;5034392;28;19921;-78
2023/06/25 02:39:41;;;;;;;;;;;17.90;81.90;;;;;;5022625;28;19925;-79
2023/06/25 02:42:07;;;;;;;;;;;17.90;82.10;;;;;;5006540;28;19921;-80
2023/06/25 02:44:33;;;;;;;;;;;18.00;81.90;;;;;;5007946;28;20354;-79
2023/06/25 02:46:58;;;;;;;;;;;18.00;81.40;;;;;;5020684;28;19919;-78
2023/06/25 02:49:24;;;;;;;;;;;17.90;81.30;;;;;;5002866;28;20000;-83
2023/06/25 02:51:50;;;;;;;;;;;17.90;80.80;;;;;;5021174;28;20470;-78
2023/06/25 02:54:15;;;;;;;;;;;17.90;80.60;;;;;;5037643;28;20407;-91
2023/06/25 02:56:41;;;;;;;;;;;17.90;81.20;;;;;;5010328;28;19913;-88
2023/06/25 02:59:06;;;;;;;;;;;17.90;81.20;;;;;;5011249;28;19917;-82
2023/06/25 03:01:32;;;;;;;;;;;17.80;81.60;;;;;;5005190;28;20004;-79
2023/06/25 03:03:57;;;;;;;;;;;17.80;81.40;;;;;;5012952;28;19917;-80
2023/06/25 03:06:24;;;;;;;;;;;17.80;81.30;;;;;;5009071;28;23469;-84
2023/06/25 03:08:50;;;;;;;;;;;17.80;81.80;;;;;;5011823;28;20008;-83
2023/06/25 03:11:15;;;;;;;;;;;17.70;81.80;;;;;;5035882;28;19917;-84
2023/06/25 03:13:41;;;;;;;;;;;17.70;81.80;;;;;;5012303;28;19981;-83
2023/06/25 03:16:06;;;;;;;;;;;17.80;81.40;;;;;;5022571;28;19967;-82
2023/06/25 03:18:32;;;;;;;;;;;17.80;81.40;;;;;;5034267;28;20296;-84
2023/06/25 03:20:57;;;;;;;;;;;17.80;81.70;;;;;;5022172;28;19917;-81
2023/06/25 03:23:22;;;;;;;;;;;17.70;81.90;;;;;;5025512;28;19921;-82
2023/06/25 03:25:48;;;;;;;;;;;17.70;82.40;;;;;;5025638;28;19913;-81
2023/06/25 03:28:13;;;;;;;;;;;17.60;82.50;;;;;;5022561;28;20436;-81
2023/06/25 03:30:39;;;;;;;;;;;17.60;82.60;;;;;;5022152;28;19916;-81
2023/06/25 03:33:04;;;;;;;;;;;17.60;82.80;;;;;;5015421;28;19956;-81
2023/06/25 03:35:30;;;;;;;;;;;17.70;82.80;;;;;;5022668;28;20273;-81
2023/06/25 03:37:55;;;;;;;;;;;17.80;82.60;;;;;;5023050;28;19928;-82
2023/06/25 03:40:21;;;;;;;;;;;17.70;82.70;;;;;;5023800;28;20312;-81
2023/06/25 03:42:46;;;;;;;;;;;17.70;82.60;;;;;;5011191;28;19921;-81
2023/06/25 03:45:15;;;;;;;;;;;17.60;82.50;;;;;;5020122;28;19920;-81
2023/06/25 03:47:40;;;;;;;;;;;17.60;82.80;;;;;;5021763;28;19928;-81
2023/06/25 03:50:06;;;;;;;;;;;17.60;82.90;;;;;;5033126;28;19925;-82
2023/06/25 03:52:32;;;;;;;;;;;17.60;82.50;;;;;;5022010;28;20404;-82
2023/06/25 03:54:57;;;;;;;;;;;17.70;82.70;;;;;;5006077;28;20224;-82
2023/06/25 03:57:23;;;;;;;;;;;17.80;82.20;;;;;;5020802;28;19917;-82
2023/06/25 03:59:49;;;;;;;;;;;17.70;82.30;;;;;;5022353;28;19921;-81
2023/06/25 04:02:14;;;;;;;;;;;17.70;82.50;;;;;;5013332;28;19916;-82
2023/06/25 04:04:39;;;;;;;;;;;17.70;82.60;;;;;;5012142;28;19925;-82
2023/06/25 04:07:05;;;;;;;;;;;17.70;82.80;;;;;;5029383;28;20423;-81
2023/06/25 04:09:30;;;;;;;;;;;17.70;83.20;;;;;;5022291;28;19972;-83
2023/06/25 04:11:56;;;;;;;;;;;17.80;83.40;;;;;;5027730;28;19917;-82
2023/06/25 04:14:22;;;;;;;;;;;17.70;83.50;;;;;;5028178;28;20405;-82
2023/06/25 04:16:47;;;;;;;;;;;17.70;83.70;;;;;;5027658;28;19921;-83
2023/06/25 04:19:13;;;;;;;;;;;17.70;83.90;;;;;;5038106;28;19955;-83
2023/06/25 04:21:38;;;;;;;;;;;17.80;83.90;;;;;;5023736;28;19920;-81
2023/06/25 04:24:04;;;;;;;;;;;17.80;84.00;;;;;;5027903;28;19917;-82
2023/06/25 04:26:29;;;;;;;;;;;17.80;84.00;;;;;;5010023;28;19924;-83
2023/06/25 04:28:55;;;;;;;;;;;17.80;84.10;;;;;;5014216;28;20396;-82
2023/06/25 04:31:23;;;;;;;;;;;17.80;83.90;;;;;;5025932;28;19917;-82
2023/06/25 04:33:49;;;;;;;;;;;17.80;83.90;;;;;;5038767;28;19917;-83
2023/06/25 04:36:14;;;;;;;;;;;17.90;83.60;;;;;;5014157;28;19917;-82
2023/06/25 04:38:40;;;;;;;;;;;18.00;83.60;;;;;;5025160;28;19922;-82
2023/06/25 04:41:05;;;;;;;;;;;18.00;83.30;;;;;;5036256;28;20338;-83
2023/06/25 04:43:31;;;;;;;;;;;18.00;83.40;;;;;;5024527;28;19928;-82
2023/06/25 04:45:56;;;;;;;;;;;18.10;83.70;;;;;;5033572;28;19921;-82
2023/06/25 04:48:22;;;;;;;;;;;18.30;83.90;;;;;;5027738;28;20691;-83
2023/06/25 04:50:47;;;;;;;;;;;18.30;84.10;;;;;;5026474;28;19913;-83
2023/06/25 04:53:13;;;;;;;;;;;18.40;84.20;;;;;;5024086;28;20071;-82
2023/06/25 04:55:38;;;;;;;;;;;18.40;84.30;;;;;;5008106;28;19925;-82
2023/06/25 04:58:04;;;;;;;;;;;18.50;84.20;;;;;;5037953;28;19921;-83
2023/06/25 05:00:29;;;;;;;;;;;18.60;84.00;;;;;;5025142;28;19932;-83
2023/06/25 05:02:55;;;;;;;;;;;18.70;84.30;;;;;;5007576;28;19917;-83
2023/06/25 05:05:20;;;;;;;;;;;18.80;84.20;;;;;;5013040;28;19913;-84
2023/06/25 05:07:47;;;;;;;;;;;18.90;83.30;;;;;;5031341;28;20471;-81
2023/06/25 05:10:16;;;;;;;;;;;19.00;82.90;;;;;;5047979;28;19975;-82
2023/06/25 05:12:41;;;;;;;;;;;19.00;82.50;;;;;;5016532;28;19956;-83
2023/06/25 05:15:07;;;;;;;;;;;19.10;82.20;;;;;;5026921;28;19920;-82
2023/06/25 05:17:32;;;;;;;;;;;19.10;81.40;;;;;;5008750;28;20039;-83
2023/06/25 05:19:58;;;;;;;;;;;19.30;80.70;;;;;;5012672;28;20443;-82
2023/06/25 05:22:23;;;;;;;;;;;19.40;80.40;;;;;;5025405;28;19925;-81
2023/06/25 05:24:49;;;;;;;;;;;19.50;78.80;;;;;;5014650;28;19928;-83
2023/06/25 05:27:14;;;;;;;;;;;19.60;79.10;;;;;;5011045;28;19979;-82
2023/06/25 05:29:40;;;;;;;;;;;19.80;79.00;;;;;;5012545;28;19924;-82
2023/06/25 05:32:05;;;;;;;;;;;19.90;79.30;;;;;;5025980;28;20687;-83
2023/06/25 05:34:31;;;;;;;;;;;19.90;77.80;;;;;;5018898;28;19989;-81
2023/06/25 05:36:56;;;;;;;;;;;20.00;77.60;;;;;;5020905;28;19929;-81
2023/06/25 05:39:28;;;;;;;;;;;20.10;77.40;;;;;;5006916;28;20406;-82
2023/06/25 05:41:55;;;;;;;;;;;20.20;78.10;;;;;;5025526;28;20328;-82
2023/06/25 05:44:20;;;;;;;;;;;20.20;78.60;;;;;;5022878;28;19921;-82
2023/06/25 05:46:45;;;;;;;;;;;20.40;78.40;;;;;;5034928;28;20031;-82
2023/06/25 05:49:11;;;;;;;;;;;20.50;78.50;;;;;;5020341;28;20016;-82
2023/06/25 05:51:36;;;;;;;;;;;20.70;77.70;;;;;;5008699;28;20349;-82
2023/06/25 05:54:02;;;;;;;;;;;20.70;76.20;;;;;;5009663;28;19944;-80
2023/06/25 05:56:27;;;;;;;;;;;20.90;76.00;;;;;;5033273;28;20003;-80
2023/06/25 05:58:53;;;;;;;;;;;20.90;76.60;;;;;;5037266;28;19925;-79
2023/06/25 06:01:20;;;;;;;;;;;20.80;76.40;;;;;;5007110;28;19936;-82
2023/06/25 06:03:46;;;;;;;;;;;20.80;76.50;;;;;;5021045;28;19941;-83
2023/06/25 06:06:12;;;;;;;;;;;20.90;76.70;;;;;;5021361;28;19913;-80
2023/06/25 06:08:38;;;;;;;;;;;20.90;77.40;;;;;;5022104;28;19912;-79
2023/06/25 06:11:03;;;;;;;;;;;21.00;77.00;;;;;;5009713;28;20011;-81
2023/06/25 06:13:29;;;;;;;;;;;21.00;77.00;;;;;;5007647;28;20226;-80
2023/06/25 06:15:55;;;;;;;;;;;21.10;77.20;;;;;;5019909;28;20373;-81
2023/06/25 06:18:20;;;;;;;;;;;21.10;76.40;;;;;;5020335;28;19928;-80
2023/06/25 06:20:46;;;;;;;;;;;21.10;76.50;;;;;;5005243;28;19930;-81
2023/06/25 06:23:11;;;;;;;;;;;21.20;76.60;;;;;;5032998;28;19973;-80
2023/06/25 06:25:37;;;;;;;;;;;21.20;76.90;;;;;;5017985;28;19929;-80
2023/06/25 06:28:02;;;;;;;;;;;21.30;76.50;;;;;;5021163;28;20300;-79
2023/06/25 06:30:28;;;;;;;;;;;21.30;76.40;;;;;;5020832;28;20029;-79
2023/06/25 06:32:53;;;;;;;;;;;21.40;76.80;;;;;;5009428;28;19913;-80
2023/06/25 06:35:20;;;;;;;;;;;21.60;76.10;;;;;;5016736;28;20654;-80
2023/06/25 06:37:45;;;;;;;;;;;21.60;75.10;;;;;;5021069;28;19921;-81
2023/06/25 06:40:11;;;;;;;;;;;21.70;75.50;;;;;;5010297;28;19923;-82
2023/06/25 06:42:36;;;;;;;;;;;21.80;73.10;;;;;;5012919;28;19940;-80
2023/06/25 06:45:02;;;;;;;;;;;22.00;72.20;;;;;;5009217;28;19971;-79
2023/06/25 06:47:28;;;;;;;;;;;22.10;70.70;;;;;;5011428;28;20107;-80
2023/06/25 06:49:53;;;;;;;;;;;22.10;72.30;;;;;;5019537;28;19918;-79
2023/06/25 06:52:23;;;;;;;;;;;22.10;72.50;;;;;;5020690;28;19917;-79
2023/06/25 06:54:49;;;;;;;;;;;22.20;71.50;;;;;;5021942;28;19920;-80
2023/06/25 06:57:15;;;;;;;;;;;22.30;70.60;;;;;;5021214;28;19921;-80
2023/06/25 06:59:40;;;;;;;;;;;22.40;70.80;;;;;;5024984;28;20399;-80
2023/06/25 07:02:06;;;;;;;;;;;22.50;69.70;;;;;;5031843;28;19921;-80
2023/06/25 07:04:31;;;;;;;;;;;22.60;70.30;;;;;;5037201;28;19917;-80
2023/06/25 07:06:56;;;;;;;;;;;22.70;69.70;;;;;;5037055;28;19916;-80
2023/06/25 07:09:25;;;;;;;;;;;22.80;69.50;;;;;;5013947;28;19920;-80
2023/06/25 07:11:50;;;;;;;;;;;22.90;67.40;;;;;;5026402;28;19921;-80
2023/06/25 07:14:16;;;;;;;;;;;22.90;67.70;;;;;;5020379;28;20680;-80
2023/06/25 07:16:41;;;;;;;;;;;23.10;66.70;;;;;;5008040;28;20280;-81
2023/06/25 07:19:07;;;;;;;;;;;23.30;66.20;;;;;;5036269;28;19913;-81
2023/06/25 07:21:33;;;;;;;;;;;23.20;66.10;;;;;;5021640;28;19992;-81
2023/06/25 07:23:58;;;;;;;;;;;23.30;65.90;;;;;;5039498;28;19976;-81
2023/06/25 07:26:24;;;;;;;;;;;23.50;64.50;;;;;;5008789;28;20379;-81
2023/06/25 07:28:50;;;;;;;;;;;23.60;66.50;;;;;;5024844;28;19935;-79
2023/06/25 07:31:15;;;;;;;;;;;23.60;66.50;;;;;;5022195;28;19944;-81
2023/06/25 07:33:40;;;;;;;;;;;23.60;64.10;;;;;;5021881;28;19988;-80
2023/06/25 07:36:06;;;;;;;;;;;23.80;64.80;;;;;;5008828;28;19917;-81
2023/06/25 07:38:31;;;;;;;;;;;23.80;65.20;;;;;;5012907;28;19931;-81
2023/06/25 07:40:57;;;;;;;;;;;23.80;66.30;;;;;;5041252;28;20008;-81
2023/06/25 07:43:22;;;;;;;;;;;24.00;64.10;;;;;;5018019;28;19927;-81
2023/06/25 07:45:48;;;;;;;;;;;24.20;63.40;;;;;;5022937;28;19924;-80
2023/06/25 07:48:13;;;;;;;;;;;24.40;60.70;;;;;;5032667;28;19983;-80
2023/06/25 07:50:39;;;;;;;;;;;24.50;59.40;;;;;;5015091;28;19913;-78
2023/06/25 07:53:04;;;;;;;;;;;24.70;59.30;;;;;;5026804;28;19921;-81
2023/06/25 07:55:30;;;;;;;;;;;24.80;59.10;;;;;;5016988;28;20054;-81
2023/06/25 07:57:55;;;;;;;;;;;24.90;57.00;;;;;;5008818;28;19952;-78
2023/06/25 08:00:21;;;;;;;;;;;25.00;56.10;;;;;;5010737;28;19940;-78
2023/06/25 08:02:46;;;;;;;;;;;25.00;56.80;;;;;;5013774;28;20352;-79
2023/06/25 08:05:12;;;;;;;;;;;25.20;55.20;;;;;;5008762;28;19918;-80
2023/06/25 08:07:37;;;;;;;;;;;25.30;57.40;;;;;;5022308;28;19914;-80
2023/06/25 08:10:03;;;;;;;;;;;25.20;56.40;;;;;;5027947;28;19917;-80
2023/06/25 08:12:28;;;;;;;;;;;25.20;56.20;;;;;;5026284;28;19966;-80
2023/06/25 08:14:54;;;;;;;;;;;25.30;55.80;;;;;;5017611;28;20376;-81
2023/06/25 08:17:19;;;;;;;;;;;25.30;56.20;;;;;;5009869;28;19916;-79
2023/06/25 08:19:45;;;;;;;;;;;25.30;57.20;;;;;;5024277;28;20394;-80
2023/06/25 08:22:10;;;;;;;;;;;25.30;55.90;;;;;;5020823;28;20343;-81
2023/06/25 08:24:36;;;;;;;;;;;25.40;55.00;;;;;;5021147;28;20368;-80
2023/06/25 08:27:01;;;;;;;;;;;25.50;53.40;;;;;;5020887;28;19964;-81
2023/06/25 08:29:27;;;;;;;;;;;25.60;53.20;;;;;;5021842;28;19920;-81
2023/06/25 08:31:53;;;;;;;;;;;25.60;53.90;;;;;;5016531;28;19914;-80
2023/06/25 08:34:18;;;;;;;;;;;25.60;54.60;;;;;;5026477;28;19992;-80
2023/06/25 08:36:44;;;;;;;;;;;25.70;54.80;;;;;;5014753;28;20389;-81
2023/06/25 08:39:10;;;;;;;;;;;25.80;52.80;;;;;;5030208;28;19979;-81
2023/06/25 08:41:35;;;;;;;;;;;25.80;52.20;;;;;;5025914;28;19927;-81
2023/06/25 08:44:01;;;;;;;;;;;26.00;51.90;;;;;;5014012;28;20442;-79
2023/06/25 08:46:26;;;;;;;;;;;26.00;51.70;;;;;;5015761;28;19948;-81
2023/06/25 08:48:53;;;;;;;;;;;25.90;51.90;;;;;;5031103;28;19921;-80
2023/06/25 08:51:22;;;;;;;;;;;25.80;52.80;;;;;;5015607;28;19921;-81
2023/06/25 08:53:47;;;;;;;;;;;25.80;53.40;;;;;;5006872;28;19968;-80
2023/06/25 08:56:15;;;;;;;;;;;25.90;52.40;;;;;;5005032;28;19924;-80
2023/06/25 08:58:40;;;;;;;;;;;26.00;52.50;;;;;;5013691;28;20387;-79
2023/06/25 09:01:06;;;;;;;;;;;26.30;51.60;;;;;;5025009;28;19947;-80
2023/06/25 09:03:31;;;;;;;;;;;26.30;52.70;;;;;;5022350;28;20300;-80
2023/06/25 09:05:57;;;;;;;;;;;26.40;50.40;;;;;;5020834;28;19909;-79
2023/06/25 09:08:24;;;;;;;;;;;26.50;49.90;;;;;;5020815;28;19917;-79
2023/06/25 09:10:58;;;;;;;;;;;26.60;50.80;;;;;;5024362;28;19947;-79
2023/06/25 09:13:27;;;;;;;;;;;26.60;51.40;;;;;;5022879;28;20368;-79
2023/06/25 09:15:53;;;;;;;;;;;26.70;50.60;;;;;;5008178;28;20315;-79
2023/06/25 09:18:21;;;;;;;;;;;26.70;51.40;;;;;;5023428;28;20896;-80
2023/06/25 09:20:49;;;;;;;;;;;26.80;48.50;;;;;;5020670;28;19909;-80
2023/06/25 09:23:21;;;;;;;;;;;26.70;51.20;;;;;;5020023;28;19928;-80
2023/06/25 09:25:46;;;;;;;;;;;26.80;47.40;;;;;;5019647;28;19914;-79
2023/06/25 09:28:12;;;;;;;;;;;26.80;49.00;;;;;;5010897;28;19928;-81
2023/06/25 09:30:40;;;;;;;;;;;27.00;46.40;;;;;;5024137;28;19917;-81
2023/06/25 09:33:06;;;;;;;;;;;26.90;49.30;;;;;;5008950;28;19921;-80
2023/06/25 09:35:32;;;;;;;;;;;26.90;50.00;;;;;;5029872;28;20500;-81
2023/06/25 09:37:57;;;;;;;;;;;26.80;50.60;;;;;;5023188;28;19923;-81
2023/06/25 09:40:23;;;;;;;;;;;26.70;49.40;;;;;;5050607;28;19999;-80
2023/06/25 09:42:50;;;;;;;;;;;26.70;48.00;;;;;;5034983;28;19935;-80
2023/06/25 09:45:16;;;;;;;;;;;26.90;46.00;;;;;;5039729;28;19971;-81
2023/06/25 09:47:43;;;;;;;;;;;27.00;47.60;;;;;;5026966;28;19917;-80
2023/06/25 09:50:17;;;;;;;;;;;27.20;46.00;;;;;;5031941;28;19921;-83
2023/06/25 09:52:45;;;;;;;;;;;27.20;46.00;;;;;;5037427;28;19913;-82
2023/06/25 09:55:11;;;;;;;;;;;27.10;46.90;;;;;;5015611;28;19928;-81
2023/06/25 09:57:37;;;;;;;;;;;27.40;45.50;;;;;;5020434;28;19913;-80
2023/06/25 10:00:04;;;;;;;;;;;27.30;45.10;;;;;;5036328;22;19932;-85
2023/06/25 10:02:30;;;;;;;;;;;27.10;45.90;;;;;;5075221;28;20025;-85
2023/06/25 10:04:56;;;;;;;;;;;27.10;47.30;;;;;;5056806;28;20603;-86
2023/06/25 10:07:23;;;;;;;;;;;27.20;48.60;;;;;;5050940;28;19909;-87
2023/06/25 10:09:53;;;;;;;;;;;27.30;45.10;;;;;;5074218;28;20008;-86
2023/06/25 10:12:18;;;;;;;;;;;27.30;45.10;;;;;;5076686;28;19913;-85
2023/06/25 10:14:44;;;;;;;;;;;27.40;47.60;;;;;;5057411;28;19920;-86
2023/06/25 10:17:09;;;;;;;;;;;27.50;46.90;;;;;;5068656;28;20376;-85
2023/06/25 10:19:35;;;;;;;;;;;27.30;48.40;;;;;;5082974;28;19917;-85
2023/06/25 10:22:07;;;;;;;;;;;27.40;48.70;;;;;;5060639;28;19908;-85
2023/06/25 10:24:37;;;;;;;;;;;27.40;47.60;;;;;;5050144;28;20270;-86
2023/06/25 10:27:02;;;;;;;;;;;27.40;48.10;;;;;;5085692;28;19913;-85
2023/06/25 10:29:37;;;;;;;;;;;27.50;48.00;;;;;;5058103;28;19996;-84
2023/06/25 10:32:04;;;;;;;;;;;27.80;46.00;;;;;;5078195;28;20399;-85
2023/06/25 10:34:35;;;;;;;;;;;28.00;44.30;;;;;;5065619;28;19919;-86
2023/06/25 10:37:03;;;;;;;;;;;28.10;43.50;;;;;;5052515;28;19919;-84
2023/06/25 10:39:38;;;;;;;;;;;28.20;43.50;;;;;;5068826;28;19920;-85
2023/06/25 10:42:04;;;;;;;;;;;28.10;43.60;;;;;;5059151;28;19916;-82
2023/06/25 10:44:29;;;;;;;;;;;28.10;44.50;;;;;;5091333;28;19920;-81
2023/06/25 10:47:02;;;;;;;;;;;28.20;44.20;;;;;;5071092;28;19909;-82
2023/06/25 10:49:27;;;;;;;;;;;28.10;43.80;;;;;;5059802;28;19913;-84
2023/06/25 10:51:55;;;;;;;;;;;28.10;44.70;;;;;;5092271;28;19916;-82
2023/06/25 10:54:21;;;;;;;;;;;28.10;44.90;;;;;;5074864;28;19956;-82
2023/06/25 10:56:46;;;;;;;;;;;28.10;44.70;;;;;;5081685;28;19931;-82
2023/06/25 10:59:12;;;;;;;;;;;28.10;44.80;;;;;;5078377;28;19916;-84
2023/06/25 11:01:38;;;;;;;;;;;28.10;43.90;;;;;;5078218;28;20585;-83
2023/06/25 11:04:12;;;;;;;;;;;28.00;43.00;;;;;;5063401;28;19976;-83
2023/06/25 11:06:38;;;;;;;;;;;27.80;42.60;;;;;;5074759;28;19909;-83
2023/06/25 11:09:03;;;;;;;;;;;27.60;43.60;;;;;;5061208;28;20297;-84
2023/06/25 11:11:29;;;;;;;;;;;27.60;45.30;;;;;;5073973;28;20332;-84
2023/06/25 11:13:54;;;;;;;;;;;27.80;45.10;;;;;;5065658;28;20620;-86
2023/06/25 11:16:20;;;;;;;;;;;27.90;44.00;;;;;;5066490;28;19913;-85
2023/06/25 11:18:50;;;;;;;;;;;28.00;43.80;;;;;;5059629;28;19981;-85
2023/06/25 11:21:15;;;;;;;;;;;28.10;45.80;;;;;;5061183;28;19920;-83
2023/06/25 11:23:44;;;;;;;;;;;28.10;44.80;;;;;;5078321;28;20061;-83
2023/06/25 11:26:13;;;;;;;;;;;28.10;45.70;;;;;;5091695;28;19952;-83
2023/06/25 11:28:38;;;;;;;;;;;28.20;44.60;;;;;;5066204;28;19919;-83
2023/06/25 11:31:04;;;;;;;;;;;28.20;44.30;;;;;;5077161;28;19912;-84
2023/06/25 11:33:30;;;;;;;;;;;28.20;42.80;;;;;;5067277;28;20026;-84
2023/06/25 11:36:25;;;;;;;;;;;28.20;46.20;;;;;;5075709;28;19924;-83
2023/06/25 11:38:51;;;;;;;;;;;28.10;44.30;;;;;;5032522;28;19913;-83
2023/06/25 11:41:16;;;;;;;;;;;28.00;44.40;;;;;;5059569;28;19931;-84
2023/06/25 11:43:41;;;;;;;;;;;28.00;44.60;;;;;;5061943;28;19955;-84
2023/06/25 11:46:07;;;;;;;;;;;28.00;44.00;;;;;;5070769;28;19919;-84
2023/06/25 11:48:33;;;;;;;;;;;27.90;43.60;;;;;;5069501;28;19912;-86
2023/06/25 11:51:05;;;;;;;;;;;27.90;44.00;;;;;;5078737;28;19912;-85
2023/06/25 11:53:31;;;;;;;;;;;27.80;43.30;;;;;;5075019;28;19921;-85
2023/06/25 11:55:56;;;;;;;;;;;28.00;42.60;;;;;;5061283;28;19919;-85
2023/06/25 11:58:22;;;;;;;;;;;28.00;44.40;;;;;;5075433;28;19940;-84
2023/06/25 12:00:47;;;;;;;;;;;28.10;44.20;;;;;;5048595;28;19944;-84
2023/06/25 12:03:13;;;;;;;;;;;28.50;44.40;;;;;;5077260;28;20004;-84
2023/06/25 12:05:39;;;;;;;;;;;28.60;44.20;;;;;;5073273;28;19912;-83
2023/06/25 12:08:04;;;;;;;;;;;28.50;45.50;;;;;;5053495;28;19921;-83
2023/06/25 12:10:30;;;;;;;;;;;28.30;47.20;;;;;;5062404;28;20036;-85
2023/06/25 12:12:55;;;;;;;;;;;28.40;44.60;;;;;;5077475;28;19920;-85
2023/06/25 12:15:21;;;;;;;;;;;28.20;43.80;;;;;;5057736;28;19919;-84
2023/06/25 12:17:46;;;;;;;;;;;28.10;47.70;;;;;;5074925;28;19916;-84
2023/06/25 12:20:12;;;;;;;;;;;28.20;47.70;;;;;;5065839;28;19991;-84
2023/06/25 12:22:37;;;;;;;;;;;28.40;49.10;;;;;;5078244;28;20003;-85
2023/06/25 12:25:04;;;;;;;;;;;28.60;47.00;;;;;;5056902;28;19916;-84
2023/06/25 12:27:29;;;;;;;;;;;28.70;46.80;;;;;;5090442;28;19912;-86
2023/06/25 12:29:55;;;;;;;;;;;28.80;44.80;;;;;;5057195;28;19981;-86
2023/06/25 12:32:20;;;;;;;;;;;29.00;42.50;;;;;;5057039;28;19916;-84
2023/06/25 12:34:46;;;;;;;;;;;28.70;44.00;;;;;;5056303;28;19912;-85
2023/06/25 12:37:11;;;;;;;;;;;28.50;46.80;;;;;;5071556;28;19919;-84
2023/06/25 12:39:37;;;;;;;;;;;28.20;47.00;;;;;;5048185;28;19917;-85
2023/06/25 12:42:02;;;;;;;;;;;28.00;49.00;;;;;;5071767;28;19912;-84
2023/06/25 12:44:28;;;;;;;;;;;28.00;49.00;;;;;;5077396;28;19916;-85
2023/06/25 12:46:53;;;;;;;;;;;28.10;49.20;;;;;;5083142;28;19951;-84
2023/06/25 12:49:19;;;;;;;;;;;28.10;48.50;;;;;;5081644;28;19959;-84
2023/06/25 12:51:44;;;;;;;;;;;28.10;48.90;;;;;;5059797;28;20031;-85
2023/06/25 12:54:10;;;;;;;;;;;28.00;47.90;;;;;;5045550;28;19913;-84
2023/06/25 12:56:35;;;;;;;;;;;28.20;48.10;;;;;;5064513;28;19972;-84
2023/06/25 12:59:01;;;;;;;;;;;28.40;46.60;;;;;;5070787;28;19908;-85
2023/06/25 13:01:26;;;;;;;;;;;28.50;45.70;;;;;;5083463;28;19917;-85
2023/06/25 13:03:52;;;;;;;;;;;28.60;45.10;;;;;;5061149;28;20277;-84
2023/06/25 13:06:20;;;;;;;;;;;28.80;46.40;;;;;;5052048;28;19919;-84
2023/06/25 13:08:45;;;;;;;;;;;28.80;45.90;;;;;;5079021;28;19957;-84
2023/06/25 13:11:11;;;;;;;;;;;28.70;46.80;;;;;;5083097;28;20357;-85
2023/06/25 13:13:36;;;;;;;;;;;28.90;46.50;;;;;;5064530;28;19999;-84
2023/06/25 13:16:02;;;;;;;;;;;29.10;44.10;;;;;;5078523;28;19920;-85
2023/06/25 13:18:27;;;;;;;;;;;29.00;44.30;;;;;;5053659;28;20814;-84
2023/06/25 13:20:53;;;;;;;;;;;29.10;42.90;;;;;;5087550;28;19936;-86
2023/06/25 13:23:18;;;;;;;;;;;29.00;43.40;;;;;;5047692;28;21028;-84
2023/06/25 13:25:44;;;;;;;;;;;29.00;43.40;;;;;;5075497;28;20003;-84
2023/06/25 13:28:09;;;;;;;;;;;29.00;42.20;;;;;;5058717;28;19912;-85
2023/06/25 13:30:34;;;;;;;;;;;29.00;43.00;;;;;;5075317;28;20029;-85
2023/06/25 13:33:00;;;;;;;;;;;29.20;43.80;;;;;;5041541;28;20387;-85
2023/06/25 13:35:26;;;;;;;;;;;29.20;44.90;;;;;;5048993;28;19943;-85
2023/06/25 13:37:52;;;;;;;;;;;29.20;43.50;;;;;;5050955;28;19939;-84
2023/06/25 13:40:17;;;;;;;;;;;29.20;45.20;;;;;;5055154;28;19916;-84
2023/06/25 13:42:43;;;;;;;;;;;29.10;44.00;;;;;;5047319;28;19912;-84
2023/06/25 13:45:09;;;;;;;;;;;29.10;43.00;;;;;;5054204;28;19958;-84
2023/06/25 13:47:34;;;;;;;;;;;29.20;44.80;;;;;;5072585;28;19916;-84
2023/06/25 13:50:00;;;;;;;;;;;29.10;44.90;;;;;;5069024;28;20399;-84
2023/06/25 13:52:26;;;;;;;;;;;28.90;43.70;;;;;;5074829;28;19920;-85
2023/06/25 13:54:51;;;;;;;;;;;28.70;44.30;;;;;;5047214;28;19917;-84
2023/06/25 13:57:17;;;;;;;;;;;28.50;44.10;;;;;;5069273;28;19957;-85
2023/06/25 13:59:43;;;;;;;;;;;28.50;42.70;;;;;;5067438;28;19916;-84
2023/06/25 14:02:09;;;;;;;;;;;28.30;43.30;;;;;;5082963;28;19916;-83
2023/06/25 14:04:34;;;;;;;;;;;28.10;44.10;;;;;;5066152;28;19925;-84
2023/06/25 14:06:59;;;;;;;;;;;28.10;44.90;;;;;;5050230;28;20002;-83
2023/06/25 14:09:26;;;;;;;;;;;28.30;45.60;;;;;;5053627;28;19912;-84